Terminal Aerodrome Forecast
Issued by NWS Quad Cities IA IL

Home | Current Version | Previous Version | Text Only | Print | Product List | Glossary On
Versions: 1 2 3 4 5 6 7 8 9 10 11 12 13 14 15 16 17 18 19 20
000
FTUS43 KDVN 011202 AAA
TAFMLI
TAF AMD
KMLI 011202Z 0112/0212 08006KT P6SM SCT006 OVC250
      TEMPO 0112/0114 1SM BR BKN006
     FM011500 07006KT P6SM SCT020 BKN250
     FM012200 04007KT P6SM OVC100=

USA.gov is the U.S. government's official web portal to all federal, state and local government web resources and services.